createdAt,value
2022-10-30T00:01:07.265Z,54.97
2022-10-30T00:13:32.637Z,47.87
2022-10-30T00:15:59.982Z,45.38
2022-10-30T00:18:27.065Z,46.88
2022-10-30T00:21:15.219Z,46.63
2022-10-30T00:23:47.465Z,45.40
2022-10-30T00:51:58.255Z,60.38
2022-10-30T00:59:22.747Z,52.10
2022-10-30T01:01:50.980Z,58.17
2022-10-30T01:27:21.401Z,57.75
2022-10-30T01:30:30.241Z,56.72
2022-10-30T01:33:50.488Z,56.15
2022-10-30T01:36:33.567Z,52.20
2022-10-30T01:39:06.114Z,55.08
2022-10-30T01:41:34.037Z,48.15
2022-10-30T01:48:56.078Z,52.42
2022-10-30T01:51:53.599Z,43.97
2022-10-30T01:59:15.560Z,50.08
2022-10-30T02:01:43.519Z,46.10
2022-10-30T02:30:45.583Z,37.45
2022-10-30T02:33:12.853Z,46.25
2022-10-30T02:35:39.975Z,47.20
2022-10-30T02:53:52.943Z,44.42
2022-10-30T03:22:39.018Z,36.05
2022-10-30T03:29:34.998Z,34.65
2022-10-30T03:32:04.179Z,32.00
2022-10-30T03:39:10.164Z,40.08
2022-10-30T03:41:38.187Z,31.77
2022-10-30T03:44:05.339Z,32.05
2022-10-30T03:55:30.789Z,29.95
2022-10-30T03:57:59.469Z,26.73
2022-10-30T04:05:00.879Z,31.80
2022-10-30T04:07:27.956Z,34.03
2022-10-30T04:09:55.050Z,29.58
2022-10-30T04:13:38.307Z,27.02
2022-10-30T04:16:06.924Z,25.85
2022-10-30T04:18:34.455Z,28.95
2022-10-30T05:00:45.152Z,30.50
2022-10-30T05:03:40.475Z,26.80
2022-10-30T05:06:25.051Z,23.95
2022-10-30T05:27:47.824Z,22.87
2022-10-30T05:30:15.118Z,26.58
2022-10-30T05:32:42.234Z,26.55
2022-10-30T05:36:01.298Z,25.10
2022-10-30T05:38:28.373Z,24.25
2022-10-30T05:40:55.645Z,25.00
2022-10-30T05:57:36.334Z,26.33
2022-10-30T06:00:05.274Z,25.95
2022-10-30T06:08:09.351Z,26.70
2022-10-30T06:10:38.036Z,26.55
2022-10-30T06:22:13.443Z,28.33
2022-10-30T06:24:50.310Z,22.05
2022-10-30T06:27:37.782Z,32.67
2022-10-30T06:30:05.416Z,27.63
2022-10-30T06:32:33.306Z,22.83
2022-10-30T06:35:00.461Z,22.95
2022-10-30T06:37:28.270Z,23.90
2022-10-30T06:39:55.842Z,26.58
2022-10-30T06:42:47.304Z,23.52
2022-10-30T06:45:41.971Z,24.70
2022-10-30T06:48:10.141Z,25.42
2022-10-30T06:50:41.858Z,28.98
2022-10-30T06:53:09.027Z,33.10
2022-10-30T06:55:36.909Z,22.60
2022-10-30T06:58:39.342Z,22.70
2022-10-30T07:01:15.880Z,28.83
2022-10-30T07:03:58.064Z,20.48
2022-10-30T07:07:42.140Z,24.45
2022-10-30T07:10:09.858Z,21.95
2022-10-30T07:12:59.458Z,23.45
2022-10-30T07:16:03.480Z,24.30
2022-10-30T07:18:43.003Z,19.60
2022-10-30T07:21:11.632Z,22.95
2022-10-30T07:23:39.119Z,24.45
2022-10-30T07:26:33.660Z,26.40
2022-10-30T07:29:18.640Z,24.20
2022-10-30T07:32:18.715Z,26.77
2022-10-30T07:34:50.483Z,25.13
2022-10-30T07:37:55.060Z,26.45
2022-10-30T07:40:33.402Z,23.42
2022-10-30T07:43:22.749Z,22.77
2022-10-30T07:46:01.752Z,27.63
2022-10-30T07:51:58.451Z,28.13
2022-10-30T07:54:25.607Z,25.02
2022-10-30T07:56:53.884Z,22.40
2022-10-30T08:00:10.210Z,21.27
2022-10-30T08:02:40.333Z,23.08
2022-10-30T08:05:33.100Z,21.95
2022-10-30T08:08:07.091Z,26.83
2022-10-30T08:10:38.493Z,24.30
2022-10-30T08:13:05.614Z,23.38
2022-10-30T08:15:33.333Z,27.17
2022-10-30T08:18:49.700Z,23.13
2022-10-30T08:21:20.047Z,23.92
2022-10-30T08:24:01.980Z,23.48
2022-10-30T08:26:32.210Z,23.25
2022-10-30T08:28:59.355Z,25.30
2022-10-30T08:32:28.182Z,26.88
2022-10-30T08:35:19.890Z,22.77
2022-10-30T08:38:03.088Z,20.90
2022-10-30T08:40:31.049Z,20.17
2022-10-30T08:43:28.372Z,21.95
2022-10-30T08:45:58.442Z,23.48
2022-10-30T08:48:26.207Z,24.67
2022-10-30T08:50:59.132Z,23.30
2022-10-30T08:53:31.645Z,18.00
2022-10-30T08:55:59.715Z,22.33
2022-10-30T08:58:34.092Z,27.30
2022-10-30T09:05:34.185Z,27.13
2022-10-30T09:08:20.191Z,19.02
2022-10-30T09:11:23.739Z,21.13
2022-10-30T09:13:50.832Z,22.15
2022-10-30T09:16:17.913Z,18.77
2022-10-30T09:25:10.409Z,18.02
2022-10-30T09:27:57.838Z,22.88
2022-10-30T09:30:28.189Z,17.75
2022-10-30T09:33:20.339Z,22.80
2022-10-30T09:36:07.646Z,22.45
2022-10-30T09:38:35.702Z,22.05
2022-10-30T09:41:27.765Z,15.27
2022-10-30T09:44:33.915Z,20.83
2022-10-30T09:47:08.769Z,15.00
2022-10-30T09:50:41.861Z,21.15
2022-10-30T09:53:12.221Z,14.13
2022-10-30T09:56:18.580Z,21.05
2022-10-30T09:59:08.243Z,19.30
2022-10-30T10:05:59.453Z,16.20
2022-10-30T10:09:16.974Z,23.75
2022-10-30T10:12:14.037Z,18.63
2022-10-30T10:14:48.296Z,16.13
2022-10-30T10:17:28.791Z,16.52
2022-10-30T10:20:28.478Z,14.18
2022-10-30T10:23:00.164Z,13.13
2022-10-30T10:26:11.148Z,13.73
2022-10-30T10:29:16.407Z,14.50
2022-10-30T10:36:39.944Z,14.40
2022-10-30T10:39:21.009Z,18.08
2022-10-30T10:42:17.295Z,18.60
2022-10-30T10:45:18.202Z,19.85
2022-10-30T10:50:57.319Z,16.38
2022-10-30T10:54:07.867Z,14.88
2022-10-30T10:56:41.563Z,18.52
2022-10-30T10:59:38.819Z,14.27
2022-10-30T11:02:05.959Z,16.17
2022-10-30T11:04:49.969Z,15.25
2022-10-30T11:07:35.599Z,16.95
2022-10-30T11:10:02.759Z,16.35
2022-10-30T11:12:33.930Z,15.68
2022-10-30T11:19:52.169Z,17.55
2022-10-30T11:25:20.611Z,14.98
2022-10-30T11:27:50.423Z,15.50
2022-10-30T11:30:20.409Z,15.27
2022-10-30T11:32:47.548Z,13.70
2022-10-30T11:35:42.592Z,13.20
2022-10-30T11:38:20.789Z,21.17
2022-10-30T11:46:09.740Z,18.50
2022-10-30T11:48:44.143Z,17.70
2022-10-30T11:55:45.936Z,13.23
2022-10-30T11:58:31.293Z,14.43
2022-10-30T12:02:08.430Z,14.93
2022-10-30T12:04:35.787Z,13.82
2022-10-30T12:07:39.175Z,16.67
2022-10-30T12:10:23.667Z,13.25
2022-10-30T12:13:18.468Z,16.88
2022-10-30T12:19:19.911Z,11.43
2022-10-30T12:21:57.257Z,13.57
2022-10-30T12:24:52.414Z,17.52
2022-10-30T12:27:22.576Z,15.85
2022-10-30T12:30:18.948Z,14.23
2022-10-30T12:33:20.555Z,14.43
2022-10-30T12:35:51.623Z,14.88
2022-10-30T12:38:25.636Z,15.70
2022-10-30T12:45:47.053Z,17.63
2022-10-30T12:48:32.822Z,18.33
2022-10-30T12:51:23.058Z,14.82
2022-10-30T12:54:22.104Z,11.75
2022-10-30T12:57:41.410Z,16.58
2022-10-30T13:00:16.101Z,18.77
2022-10-30T13:03:19.210Z,16.15
2022-10-30T13:06:16.409Z,14.60
2022-10-30T13:13:34.691Z,22.95
2022-10-30T13:16:07.627Z,19.60
2022-10-30T13:19:40.855Z,18.23
2022-10-30T13:22:24.104Z,16.40
2022-10-30T13:25:28.006Z,16.65
2022-10-30T13:28:04.987Z,14.52
2022-10-30T13:31:43.911Z,13.57
2022-10-30T13:34:38.974Z,14.00
2022-10-30T13:37:37.043Z,15.50
2022-10-30T13:40:23.687Z,14.13
2022-10-30T13:43:42.764Z,14.88
2022-10-30T13:46:46.608Z,17.50
2022-10-30T13:49:57.045Z,16.00
2022-10-30T13:59:02.580Z,16.15
2022-10-30T14:01:49.977Z,17.02
2022-10-30T14:05:24.894Z,14.68
2022-10-30T14:08:06.334Z,13.20
2022-10-30T14:12:00.871Z,13.27
2022-10-30T14:14:32.159Z,18.25
2022-10-30T14:17:15.528Z,14.23
2022-10-30T14:20:13.565Z,15.52
2022-10-30T14:24:01.892Z,12.93
2022-10-30T14:26:29.040Z,13.90
2022-10-30T14:28:56.921Z,16.52
2022-10-30T14:31:43.117Z,14.20
2022-10-30T14:34:42.662Z,16.65
2022-10-30T14:38:35.056Z,16.65
2022-10-30T14:41:12.866Z,13.18
2022-10-30T14:44:12.308Z,13.75
2022-10-30T14:46:59.155Z,15.27
2022-10-30T14:50:36.975Z,16.67
2022-10-30T14:53:40.687Z,13.73
2022-10-30T14:56:34.678Z,14.95
2022-10-30T14:59:13.942Z,17.93
2022-10-30T15:02:14.319Z,13.15
2022-10-30T15:05:01.661Z,16.88
2022-10-30T15:16:29.450Z,17.20
2022-10-30T15:19:02.202Z,17.55
2022-10-30T15:22:19.732Z,17.73
2022-10-30T15:24:47.162Z,20.58
2022-10-30T15:27:44.804Z,16.10
2022-10-30T15:30:19.513Z,10.25
2022-10-30T15:33:48.990Z,19.88
2022-10-30T15:36:21.546Z,12.32
2022-10-30T15:43:49.975Z,12.10
2022-10-30T15:46:17.208Z,15.55
2022-10-30T15:48:47.422Z,11.23
2022-10-30T16:02:42.510Z,21.73
2022-10-30T16:05:23.891Z,14.57
2022-10-30T16:08:02.583Z,13.13
2022-10-30T16:11:50.908Z,13.77
2022-10-30T16:14:22.656Z,15.43
2022-10-30T16:24:04.410Z,17.20
2022-10-30T16:29:41.259Z,15.75
2022-10-30T16:32:15.663Z,17.00
2022-10-30T16:35:13.158Z,18.20
2022-10-30T16:37:40.988Z,16.52
2022-10-30T16:40:27.135Z,20.63
2022-10-30T16:42:59.729Z,19.17
2022-10-30T16:46:32.798Z,17.45
2022-10-30T16:49:03.776Z,17.92
2022-10-30T16:52:44.678Z,16.45
2022-10-30T16:55:23.199Z,15.50
2022-10-30T16:58:00.343Z,19.75
2022-10-30T17:00:32.691Z,18.35
2022-10-30T17:04:16.872Z,18.15
2022-10-30T17:06:45.464Z,24.10
2022-10-30T17:18:12.000Z,17.45
2022-10-30T17:20:39.827Z,29.92
2022-10-30T17:24:18.802Z,24.30
2022-10-30T17:26:58.216Z,28.05
2022-10-30T17:30:05.935Z,25.40
2022-10-30T17:32:45.412Z,27.23
2022-10-30T17:53:02.249Z,23.83
2022-10-30T17:55:31.780Z,24.17
2022-10-30T17:57:58.895Z,22.63
2022-10-30T18:04:59.479Z,21.08
2022-10-30T18:07:27.467Z,21.42
2022-10-30T18:14:35.082Z,26.48
2022-10-30T18:17:02.347Z,26.70
2022-10-30T18:19:30.487Z,24.38
2022-10-30T18:31:04.118Z,26.92
2022-10-30T18:33:31.517Z,20.40
2022-10-30T18:35:59.614Z,22.73
2022-10-30T18:54:43.964Z,21.08
2022-10-30T18:57:11.078Z,24.52
2022-10-30T19:01:10.508Z,23.27
2022-10-30T19:03:30.999Z,25.92
2022-10-30T19:11:39.403Z,36.97
2022-10-30T19:14:13.711Z,45.10
2022-10-30T19:39:59.831Z,91.50
2022-10-30T19:42:26.932Z,90.15
2022-10-30T19:44:53.978Z,86.03
2022-10-30T19:52:45.837Z,86.90
2022-10-30T19:55:12.938Z,94.55
2022-10-30T19:57:40.050Z,83.65
2022-10-30T20:01:04.927Z,84.55
2022-10-30T20:03:32.164Z,82.85
2022-10-30T20:05:59.302Z,83.50
2022-10-30T20:09:05.559Z,83.20
2022-10-30T20:11:32.723Z,80.75
2022-10-30T20:13:59.751Z,76.75
2022-10-30T20:35:30.704Z,65.53
2022-10-30T20:38:00.845Z,60.13
2022-10-30T20:40:29.321Z,60.33
2022-10-30T20:43:20.197Z,55.25
2022-10-30T20:45:47.913Z,57.80
2022-10-30T20:49:27.694Z,55.22
2022-10-30T20:51:54.870Z,60.95
2022-10-30T20:54:21.947Z,58.78
2022-10-30T20:57:45.792Z,53.20
2022-10-30T21:00:14.224Z,54.95
2022-10-30T21:02:41.497Z,52.55
2022-10-30T21:05:11.849Z,52.50
2022-10-30T21:08:34.286Z,53.33
2022-10-30T21:11:06.561Z,47.47
2022-10-30T21:18:24.931Z,46.70
2022-10-30T21:20:52.028Z,53.20
2022-10-30T21:23:19.089Z,50.10
2022-10-30T21:57:22.880Z,49.83
2022-10-30T21:59:49.984Z,44.70
2022-10-30T22:02:17.468Z,44.80
2022-10-30T22:04:47.751Z,47.65
2022-10-30T22:07:18.263Z,49.45
2022-10-30T22:10:20.247Z,45.45
2022-10-30T22:12:47.375Z,46.10
2022-10-30T22:15:14.512Z,47.90
2022-10-30T22:18:32.750Z,46.63
2022-10-30T22:21:06.217Z,50.50
2022-10-30T22:23:35.778Z,53.50
2022-10-30T22:26:05.952Z,51.95
2022-10-30T22:49:51.413Z,42.38
2022-10-30T22:52:18.571Z,47.05
2022-10-30T23:07:44.100Z,42.83
2022-10-30T23:10:11.248Z,40.60
2022-10-30T23:21:35.209Z,41.53
2022-10-30T23:24:04.630Z,45.53
2022-10-30T23:26:36.823Z,42.50
2022-10-30T23:29:04.897Z,44.17
2022-10-30T23:31:38.953Z,38.70
2022-10-30T23:34:09.619Z,41.60
2022-10-30T23:45:42.221Z,37.88
2022-10-30T23:48:09.415Z,38.80
2022-10-30T23:50:36.846Z,34.70
2022-10-30T23:58:32.692Z,33.47
